createdAt,value
2022-12-19T00:00:04.864Z,101777.22
2022-12-19T00:00:45.133Z,101777.91
2022-12-19T00:01:26.814Z,101775.19
2022-12-19T00:01:58.666Z,101780.53
2022-12-19T00:02:30.692Z,101774.47
2022-12-19T00:03:02.470Z,101784.81
2022-12-19T00:03:34.199Z,101769.50
2022-12-19T00:04:09.123Z,101790.75
2022-12-19T00:04:40.809Z,101783.88
2022-12-19T00:05:13.419Z,101769.47
2022-12-19T00:05:45.031Z,101778.03
2022-12-19T00:06:17.552Z,101778.75
2022-12-19T00:06:49.035Z,101783.41
2022-12-19T00:07:20.596Z,101774.59
2022-12-19T00:07:53.563Z,101778.88
2022-12-19T00:08:25.219Z,101779.34
2022-12-19T00:08:58.958Z,101785.28
2022-12-19T00:09:30.462Z,101777.44
2022-12-19T00:10:04.523Z,101780.78
2022-12-19T00:10:36.022Z,101779.22
2022-12-19T00:11:07.517Z,101776.03
2022-12-19T00:11:39.854Z,101776.72
2022-12-19T00:12:19.066Z,101771.38
2022-12-19T00:12:51.000Z,101768.41
2022-12-19T00:13:22.771Z,101759.72
2022-12-19T00:13:54.291Z,101768.41
2022-12-19T00:14:25.811Z,101755.78
2022-12-19T00:14:57.301Z,101764.84
2022-12-19T00:15:30.335Z,101757.69
2022-12-19T00:16:04.206Z,101760.44
2022-12-19T00:16:35.825Z,101756.03
2022-12-19T00:17:10.568Z,101763.75
2022-12-19T00:17:42.149Z,101764.59
2022-12-19T00:18:14.316Z,101759.47
2022-12-19T00:18:47.087Z,101762.69
2022-12-19T00:19:18.637Z,101766.25
2022-12-19T00:19:50.291Z,101757.81
2022-12-19T00:20:21.791Z,101762.69
2022-12-19T00:21:01.460Z,101759.38
2022-12-19T00:21:35.101Z,101762.94
2022-12-19T00:22:11.016Z,101771.72
2022-12-19T00:22:45.708Z,101774.22
2022-12-19T00:23:17.186Z,101778.75
2022-12-19T00:23:49.395Z,101777.09
2022-12-19T00:24:21.918Z,101769.13
2022-12-19T00:24:53.483Z,101769.97
2022-12-19T00:25:25.017Z,101767.47
2022-12-19T00:26:14.574Z,101770.78
2022-12-19T00:26:46.092Z,101766.06
2022-12-19T00:27:17.618Z,101765.56
2022-12-19T00:27:49.149Z,101764.72
2022-12-19T00:28:23.696Z,101760.56
2022-12-19T00:28:58.215Z,101762.56
2022-12-19T00:29:29.714Z,101760.31
2022-12-19T00:30:01.218Z,101760.09
2022-12-19T00:30:34.965Z,101762.47
2022-12-19T00:31:07.985Z,101763.16
2022-12-19T00:31:39.663Z,101772.47
2022-12-19T00:32:11.375Z,101768.19
2022-12-19T00:32:47.670Z,101767.34
2022-12-19T00:33:19.181Z,101760.56
2022-12-19T00:33:50.741Z,101762.69
2022-12-19T00:34:22.246Z,101754.84
2022-12-19T00:34:53.751Z,101760.91
2022-12-19T00:35:25.342Z,101768.97
2022-12-19T00:36:01.041Z,101759.34
2022-12-19T00:36:34.424Z,101759.09
2022-12-19T00:37:05.931Z,101756.03
2022-12-19T00:37:37.498Z,101767.19
2022-12-19T00:38:12.956Z,101752.09
2022-12-19T00:38:45.890Z,101761.00
2022-12-19T00:39:17.492Z,101758.66
2022-12-19T00:39:50.798Z,101759.59
2022-12-19T00:40:22.455Z,101756.38
2022-12-19T00:40:55.924Z,101758.03
2022-12-19T00:41:29.895Z,101755.91
2022-12-19T00:42:01.471Z,101759.59
2022-12-19T00:42:33.254Z,101757.06
2022-12-19T00:43:04.784Z,101757.91
2022-12-19T00:43:36.763Z,101752.22
2022-12-19T00:44:12.048Z,101751.38
2022-12-19T00:44:47.403Z,101758.66
2022-12-19T00:45:18.891Z,101755.28
2022-12-19T00:45:50.482Z,101751.97
2022-12-19T00:46:22.776Z,101740.78
2022-12-19T00:46:54.330Z,101756.50
2022-12-19T00:47:28.615Z,101745.19
2022-12-19T00:48:00.135Z,101754.00
2022-12-19T00:48:32.346Z,101755.28
2022-12-19T00:49:04.124Z,101745.44
2022-12-19T00:49:35.896Z,101748.75
2022-12-19T00:50:09.074Z,101743.66
2022-12-19T00:50:40.569Z,101741.03
2022-12-19T00:51:15.547Z,101736.97
2022-12-19T00:51:47.174Z,101739.25
2022-12-19T00:52:18.780Z,101740.53
2022-12-19T00:52:50.313Z,101747.31
2022-12-19T00:53:21.815Z,101735.31
2022-12-19T00:53:54.793Z,101726.25
2022-12-19T00:54:27.010Z,101732.06
2022-12-19T00:54:58.867Z,101728.63
2022-12-19T00:55:30.721Z,101726.50
2022-12-19T00:56:03.943Z,101729.56
2022-12-19T00:56:37.340Z,101735.38
2022-12-19T00:57:11.207Z,101736.47
2022-12-19T00:57:48.797Z,101738.00
2022-12-19T00:58:20.299Z,101736.47
2022-12-19T00:58:53.967Z,101738.84
2022-12-19T00:59:26.754Z,101737.31
2022-12-19T01:00:01.123Z,101738.63
2022-12-19T01:00:32.768Z,101751.00
2022-12-19T01:01:09.966Z,101745.28
2022-12-19T01:01:42.150Z,101753.84
2022-12-19T01:02:14.073Z,101744.53
2022-12-19T01:02:45.915Z,101743.94
2022-12-19T01:03:17.615Z,101738.13
2022-12-19T01:04:26.075Z,101742.66
2022-12-19T01:04:41.989Z,101735.97
2022-12-19T01:05:18.491Z,101735.72
2022-12-19T01:05:51.224Z,101732.41
2022-12-19T01:06:23.183Z,101735.25
2022-12-19T01:06:57.911Z,101734.56
2022-12-19T01:07:36.334Z,101728.38
2022-12-19T01:08:07.844Z,101734.31
2022-12-19T01:08:39.680Z,101738.72
2022-12-19T01:09:12.296Z,101732.19
2022-12-19T01:09:43.829Z,101735.97
2022-12-19T01:10:17.225Z,101741.94
2022-12-19T01:10:50.094Z,101750.50
2022-12-19T01:11:41.972Z,101735.38
2022-12-19T01:12:32.366Z,101735.63
2022-12-19T01:13:03.970Z,101728.16
2022-12-19T01:13:36.811Z,101730.38
2022-12-19T01:14:22.531Z,101719.44
2022-12-19T01:15:03.974Z,101710.28
2022-12-19T01:15:39.298Z,101704.31
2022-12-19T01:16:13.045Z,101697.34
2022-12-19T01:16:44.731Z,101702.25
2022-12-19T01:17:16.347Z,101692.47
2022-12-19T01:17:49.062Z,101687.25
2022-12-19T01:18:20.767Z,101694.25
2022-12-19T01:18:52.878Z,101687.94
2022-12-19T01:19:24.423Z,101681.63
2022-12-19T01:19:57.342Z,101687.69
2022-12-19T01:20:30.016Z,101683.91
2022-12-19T01:21:10.036Z,101677.22
2022-12-19T01:21:41.834Z,101686.03
2022-12-19T01:22:14.438Z,101678.88
2022-12-19T01:22:46.259Z,101667.00
2022-12-19T01:23:18.156Z,101671.03
2022-12-19T01:23:49.681Z,101665.56
2022-12-19T01:24:21.211Z,101660.31
2022-12-19T01:24:54.300Z,101669.25
2022-12-19T01:25:25.868Z,101659.03
2022-12-19T01:25:57.683Z,101657.69
2022-12-19T01:26:29.410Z,101652.97
2022-12-19T01:27:00.929Z,101659.03
2022-12-19T01:27:32.462Z,101656.41
2022-12-19T01:28:06.163Z,101656.41
2022-12-19T01:28:37.690Z,101660.81
2022-12-19T01:29:09.210Z,101656.22
2022-12-19T01:29:52.400Z,101650.34
2022-12-19T01:30:25.183Z,101654.38
2022-12-19T01:30:57.663Z,101647.22
2022-12-19T01:31:29.205Z,101658.66
2022-12-19T01:32:00.806Z,101664.59
2022-12-19T01:32:35.162Z,101661.84
2022-12-19T01:33:06.790Z,101658.66
2022-12-19T01:33:40.909Z,101659.94
2022-12-19T01:34:15.019Z,101658.91
2022-12-19T01:34:46.790Z,101660.56
2022-12-19T01:35:21.149Z,101661.28
2022-12-19T01:35:53.419Z,101648.88
2022-12-19T01:36:25.200Z,101645.31
2022-12-19T01:36:56.850Z,101638.69
2022-12-19T01:37:28.354Z,101633.44
2022-12-19T01:38:08.132Z,101624.00
2022-12-19T01:38:40.604Z,101631.53
2022-12-19T01:39:12.164Z,101640.91
2022-12-19T01:39:44.912Z,101634.41
2022-12-19T01:40:18.669Z,101629.59
2022-12-19T01:40:55.513Z,101625.72
2022-12-19T01:41:27.190Z,101632.47
2022-12-19T01:41:58.992Z,101627.38
2022-12-19T01:42:37.852Z,101626.75
2022-12-19T01:43:13.953Z,101633.41
2022-12-19T01:43:58.045Z,101645.19
2022-12-19T01:44:31.427Z,101643.66
2022-12-19T01:45:12.126Z,101645.56
2022-12-19T01:45:47.023Z,101643.66
2022-12-19T01:46:37.264Z,101636.25
2022-12-19T01:47:11.371Z,101639.81
2022-12-19T01:47:57.414Z,101635.69
2022-12-19T01:48:38.023Z,101649.47
2022-12-19T01:49:45.281Z,101634.84
2022-12-19T01:50:25.390Z,101644.34
2022-12-19T01:51:01.853Z,101641.47
2022-12-19T01:51:42.657Z,101646.00
2022-12-19T01:52:23.501Z,101636.19
2022-12-19T01:52:57.074Z,101642.31
2022-12-19T01:53:33.129Z,101645.75
2022-12-19T01:54:07.295Z,101640.06
2022-12-19T01:54:40.571Z,101621.97
2022-12-19T01:55:12.628Z,101639.81
2022-12-19T01:55:44.528Z,101643.41
2022-12-19T01:56:18.253Z,101640.06
2022-12-19T01:56:52.306Z,101630.06
2022-12-19T01:57:23.990Z,101622.94
2022-12-19T01:57:56.705Z,101624.81
2022-12-19T01:58:28.313Z,101651.13
2022-12-19T01:59:07.285Z,101636.03
2022-12-19T01:59:48.031Z,101626.81
2022-12-19T02:00:19.641Z,101619.53
2022-12-19T02:00:52.984Z,101635.63
2022-12-19T02:01:25.534Z,101632.75
2022-12-19T02:02:11.693Z,101630.53
2022-12-19T02:02:53.972Z,101625.75
2022-12-19T02:03:29.105Z,101607.72
2022-12-19T02:04:01.980Z,101612.13
2022-12-19T02:04:33.906Z,101620.81
2022-12-19T02:05:06.100Z,101626.94
2022-12-19T02:05:38.314Z,101624.47
2022-12-19T02:06:10.562Z,101617.69
2022-12-19T02:06:43.067Z,101602.31
2022-12-19T02:07:16.597Z,101611.25
2022-12-19T02:07:49.490Z,101610.53
2022-12-19T02:08:21.803Z,101607.81
2022-12-19T02:08:53.859Z,101614.00
2022-12-19T02:09:25.695Z,101616.88
2022-12-19T02:09:58.480Z,101614.13
2022-12-19T02:10:38.854Z,101607.94
2022-12-19T02:11:10.608Z,101616.03
2022-12-19T02:11:43.073Z,101609.84
2022-12-19T02:12:14.982Z,101618.06
2022-12-19T02:12:49.271Z,101616.75
2022-12-19T02:13:22.020Z,101620.06
2022-12-19T02:13:53.564Z,101606.84
2022-12-19T02:14:25.615Z,101613.41
2022-12-19T02:15:03.118Z,101616.75
2022-12-19T02:16:07.908Z,101604.53
2022-12-19T02:16:50.543Z,101603.00
2022-12-19T02:17:31.212Z,101599.56
2022-12-19T02:18:24.269Z,101599.75
2022-12-19T02:19:10.439Z,101608.81
2022-12-19T02:20:03.294Z,101599.47
2022-12-19T02:20:54.316Z,101600.25
2022-12-19T02:21:58.239Z,101596.94
2022-12-19T02:22:48.812Z,101604.78
2022-12-19T02:23:52.994Z,101603.44
2022-12-19T02:25:00.161Z,101598.25
2022-12-19T02:25:50.411Z,101596.25
2022-12-19T02:26:48.294Z,101602.53
2022-12-19T02:27:40.829Z,101595.41
2022-12-19T02:28:26.001Z,101597.00
2022-12-19T02:29:09.281Z,101601.66
2022-12-19T02:30:07.183Z,101594.25
2022-12-19T02:30:54.001Z,101599.81
2022-12-19T02:31:32.812Z,101587.28
2022-12-19T02:32:13.353Z,101590.19
2022-12-19T02:32:53.465Z,101583.84
2022-12-19T02:33:34.114Z,101588.00
2022-12-19T02:34:15.210Z,101585.50
2022-12-19T02:35:07.913Z,101585.75
2022-12-19T02:35:47.144Z,101588.25
2022-12-19T02:36:23.004Z,101594.81
2022-12-19T02:37:08.339Z,101590.41
2022-12-19T02:38:13.219Z,101583.31
2022-12-19T02:38:54.552Z,101577.94
2022-12-19T02:39:50.982Z,101580.25
2022-12-19T02:40:33.744Z,101582.50
2022-12-19T02:41:13.707Z,101570.25
2022-12-19T02:41:57.136Z,101578.41
2022-12-19T02:42:32.008Z,101589.16
2022-12-19T02:43:06.811Z,101587.38
2022-12-19T02:43:44.021Z,101590.25
2022-12-19T02:44:22.514Z,101583.91
2022-12-19T02:44:54.935Z,101584.25
2022-12-19T02:45:33.920Z,101578.75
2022-12-19T02:46:06.508Z,101577.34
2022-12-19T02:46:41.953Z,101580.66
2022-12-19T02:47:15.630Z,101579.84
2022-12-19T02:47:47.460Z,101570.97
2022-12-19T02:48:19.729Z,101568.72
2022-12-19T02:48:51.914Z,101581.16
2022-12-19T02:49:30.965Z,101573.56
2022-12-19T02:50:04.615Z,101572.63
2022-12-19T02:50:42.290Z,101557.78
2022-12-19T02:51:15.972Z,101576.00
2022-12-19T02:51:48.907Z,101569.38
2022-12-19T02:52:23.183Z,101565.81
2022-12-19T02:52:57.108Z,101580.69
2022-12-19T02:53:28.672Z,101587.88
2022-12-19T02:54:04.797Z,101578.78
2022-12-19T02:54:37.927Z,101587.34
2022-12-19T02:55:21.726Z,101575.25
2022-12-19T02:56:16.739Z,101586.16
2022-12-19T02:57:12.533Z,101574.84
2022-12-19T02:58:17.756Z,101569.34
2022-12-19T02:59:21.557Z,101579.41
2022-12-19T03:00:08.159Z,101576.66
2022-12-19T03:01:00.925Z,101572.78
2022-12-19T03:01:42.094Z,101577.47
2022-12-19T03:02:25.369Z,101576.94
2022-12-19T03:03:18.530Z,101570.44
2022-12-19T03:04:25.706Z,101569.63
2022-12-19T03:05:16.808Z,101573.06
2022-12-19T03:06:01.729Z,101580.38
2022-12-19T03:06:40.977Z,101575.56
2022-12-19T03:07:21.761Z,101573.19
2022-12-19T03:08:25.237Z,101569.88
2022-12-19T03:09:14.421Z,101577.06
2022-12-19T03:09:53.355Z,101578.84
2022-12-19T03:10:37.501Z,101571.81
2022-12-19T03:11:13.300Z,101578.28
2022-12-19T03:11:49.004Z,101569.59
2022-12-19T03:12:29.580Z,101563.53
2022-12-19T03:13:07.223Z,101563.69
2022-12-19T03:13:43.930Z,101568.63
2022-12-19T03:14:17.686Z,101566.16
2022-12-19T03:14:49.647Z,101569.97
2022-12-19T03:15:23.466Z,101567.34
2022-12-19T03:15:57.397Z,101558.66
2022-12-19T03:16:29.501Z,101560.31
2022-12-19T03:17:06.121Z,101557.84
2022-12-19T03:17:38.102Z,101552.59
2022-12-19T03:18:10.008Z,101540.44
2022-12-19T03:18:42.091Z,101535.91
2022-12-19T03:19:14.863Z,101555.34
2022-12-19T03:19:46.396Z,101546.66
2022-12-19T03:20:46.022Z,101551.50
2022-12-19T03:21:34.128Z,101548.75
2022-12-19T03:22:06.016Z,101544.38
2022-12-19T03:22:37.555Z,101549.88
2022-12-19T03:23:09.327Z,101541.06
2022-12-19T03:23:41.209Z,101541.31
2022-12-19T03:24:13.901Z,101532.91
2022-12-19T03:24:45.791Z,101537.75
2022-12-19T03:25:18.728Z,101535.25
2022-12-19T03:25:55.341Z,101537.75
2022-12-19T03:26:29.225Z,101526.97
2022-12-19T03:27:37.545Z,101528.50
2022-12-19T03:28:13.341Z,101527.53
2022-12-19T03:28:54.491Z,101527.41
2022-12-19T03:29:30.424Z,101525.19
2022-12-19T03:30:06.570Z,101525.31
2022-12-19T03:30:43.325Z,101528.91
2022-12-19T03:31:16.989Z,101537.19
2022-12-19T03:31:48.683Z,101528.63
2022-12-19T03:32:21.418Z,101527.94
2022-12-19T03:32:54.849Z,101536.66
2022-12-19T03:33:27.691Z,101536.78
2022-12-19T03:34:02.662Z,101529.75
2022-12-19T03:34:59.633Z,101525.06
2022-12-19T03:35:32.218Z,101530.16
2022-12-19T03:36:06.656Z,101528.38
2022-12-19T03:36:41.988Z,101520.22
2022-12-19T03:37:16.076Z,101524.78
2022-12-19T03:37:49.641Z,101523.72
2022-12-19T03:38:21.743Z,101522.97
2022-12-19T03:38:53.773Z,101516.53
2022-12-19T03:39:26.763Z,101520.91
2022-12-19T03:40:04.833Z,101522.28
2022-12-19T03:40:37.391Z,101520.13
2022-12-19T03:41:10.656Z,101522.97
2022-12-19T03:42:02.002Z,101523.81
2022-12-19T03:42:52.243Z,101519.94
2022-12-19T03:43:26.271Z,101519.84
2022-12-19T03:43:59.218Z,101521.78
2022-12-19T03:44:33.549Z,101514.00
2022-12-19T03:45:07.046Z,101520.91
2022-12-19T03:46:02.649Z,101524.38
2022-12-19T03:46:35.524Z,101510.69
2022-12-19T03:47:23.705Z,101516.53
2022-12-19T03:48:02.509Z,101519.25
2022-12-19T03:48:47.993Z,101523.13
2022-12-19T03:49:19.617Z,101516.91
2022-12-19T03:49:51.187Z,101517.59
2022-12-19T03:50:25.221Z,101517.31
2022-12-19T03:51:15.410Z,101518.97
2022-12-19T03:51:59.468Z,101507.53
2022-12-19T03:53:10.492Z,101514.56
2022-12-19T03:53:51.734Z,101518.28
2022-12-19T03:54:26.764Z,101517.88
2022-12-19T03:55:08.641Z,101516.22
2022-12-19T03:55:48.380Z,101522.84
2022-12-19T03:56:32.319Z,101517.88
2022-12-19T03:57:06.565Z,101521.72
2022-12-19T03:57:43.389Z,101518.97
2022-12-19T03:58:24.803Z,101519.94
2022-12-19T03:59:01.905Z,101517.59
2022-12-19T03:59:34.853Z,101515.94
2022-12-19T04:00:09.220Z,101511.94
2022-12-19T04:00:49.638Z,101516.50
2022-12-19T04:01:21.695Z,101516.50
2022-12-19T04:01:53.760Z,101517.59
2022-12-19T04:02:25.904Z,101516.78
2022-12-19T04:02:58.783Z,101500.63
2022-12-19T04:03:30.900Z,101508.50
2022-12-19T04:04:03.630Z,101504.34
2022-12-19T04:04:44.905Z,101504.22
2022-12-19T04:05:21.606Z,101499.38
2022-12-19T04:05:54.274Z,101503.25
2022-12-19T04:06:28.623Z,101506.56
2022-12-19T04:07:01.785Z,101512.09
2022-12-19T04:07:34.077Z,101511.13
2022-12-19T04:08:06.903Z,101516.09
2022-12-19T04:08:39.651Z,101515.84
2022-12-19T04:09:13.066Z,101514.88
2022-12-19T04:09:47.145Z,101506.28
2022-12-19T04:10:22.011Z,101513.09
2022-12-19T04:10:55.993Z,101512.38
2022-12-19T04:11:31.241Z,101513.22
2022-12-19T04:12:07.146Z,101523.72
2022-12-19T04:13:07.248Z,101515.84
2022-12-19T04:13:47.311Z,101516.53
2022-12-19T04:14:39.098Z,101507.69
2022-12-19T04:15:13.852Z,101520.66
2022-12-19T04:15:58.313Z,101514.59
2022-12-19T04:16:32.915Z,101508.53
2022-12-19T04:17:15.782Z,101512.94
2022-12-19T04:17:57.538Z,101503.84
2022-12-19T04:18:29.613Z,101516.53
2022-12-19T04:19:11.612Z,101512.94
2022-12-19T04:20:01.526Z,101513.50
2022-12-19T04:20:35.258Z,101503.84
2022-12-19T04:21:12.998Z,101496.09
2022-12-19T04:21:49.578Z,101500.78
2022-12-19T04:22:26.048Z,101505.75
2022-12-19T04:23:04.710Z,101502.44
2022-12-19T04:23:44.939Z,101495.56
2022-12-19T04:24:21.763Z,101502.19
2022-12-19T04:24:54.917Z,101496.94
2022-12-19T04:25:29.876Z,101490.44
2022-12-19T04:26:03.555Z,101495.00
2022-12-19T04:26:36.640Z,101490.84
2022-12-19T04:27:09.648Z,101492.09
2022-12-19T04:27:45.396Z,101494.16
2022-12-19T04:28:27.310Z,101494.72
2022-12-19T04:29:01.877Z,101503.84
2022-12-19T04:29:34.733Z,101505.50
2022-12-19T04:30:09.924Z,101487.56
2022-12-19T04:30:43.250Z,101487.97
2022-12-19T04:31:16.398Z,101492.78
2022-12-19T04:31:48.523Z,101488.38
2022-12-19T04:32:20.649Z,101493.75
2022-12-19T04:32:56.377Z,101488.09
2022-12-19T04:33:27.933Z,101485.47
2022-12-19T04:33:59.662Z,101493.63
2022-12-19T04:34:36.028Z,101488.38
2022-12-19T04:35:11.033Z,101487.81
2022-12-19T04:35:42.595Z,101488.50
2022-12-19T04:36:14.188Z,101485.88
2022-12-19T04:36:45.863Z,101479.66
2022-12-19T04:37:17.457Z,101488.91
2022-12-19T04:37:49.013Z,101475.81
2022-12-19T04:38:23.346Z,101481.88
2022-12-19T04:38:54.854Z,101481.59
2022-12-19T04:39:26.377Z,101481.19
2022-12-19T04:39:58.710Z,101475.94
2022-12-19T04:40:30.235Z,101480.63
2022-12-19T04:41:02.087Z,101483.97
2022-12-19T04:41:33.698Z,101490.59
2022-12-19T04:42:08.375Z,101482.28
2022-12-19T04:42:40.099Z,101483.53
2022-12-19T04:43:11.567Z,101487.41
2022-12-19T04:43:43.232Z,101477.59
2022-12-19T04:44:14.850Z,101481.59
2022-12-19T04:44:46.386Z,101482.56
2022-12-19T04:45:17.904Z,101470.44
2022-12-19T04:45:54.023Z,101470.44
2022-12-19T04:46:28.672Z,101470.97
2022-12-19T04:47:00.225Z,101478.56
2022-12-19T04:47:31.965Z,101468.50
2022-12-19T04:48:03.674Z,101467.66
2022-12-19T04:48:36.951Z,101475.13
2022-12-19T04:49:08.796Z,101475.41
2022-12-19T04:49:40.385Z,101470.84
2022-12-19T04:50:12.213Z,101468.47
2022-12-19T04:50:43.728Z,101466.56
2022-12-19T04:51:18.499Z,101467.66
2022-12-19T04:51:50.040Z,101466.81
2022-12-19T04:52:21.541Z,101464.63
2022-12-19T04:52:56.980Z,101458.97
2022-12-19T04:53:28.869Z,101474.72
2022-12-19T04:54:00.404Z,101460.75
2022-12-19T04:54:33.802Z,101462.41
2022-12-19T04:55:05.805Z,101464.88
2022-12-19T04:55:37.431Z,101466.25
2022-12-19T04:56:10.334Z,101459.66
2022-12-19T04:56:41.945Z,101461.84
2022-12-19T04:57:13.573Z,101463.53
2022-12-19T04:57:47.173Z,101453.03
2022-12-19T04:58:21.818Z,101462.56
2022-12-19T04:59:00.163Z,101452.31
2022-12-19T04:59:31.903Z,101457.19
2022-12-19T05:00:05.164Z,101460.34
2022-12-19T05:00:36.710Z,101452.19
2022-12-19T05:01:09.147Z,101461.56
2022-12-19T05:01:41.008Z,101458.53
2022-12-19T05:02:12.758Z,101463.50
2022-12-19T05:02:44.650Z,101459.09
2022-12-19T05:03:16.422Z,101470.44
2022-12-19T05:03:54.079Z,101457.03
2022-12-19T05:04:26.781Z,101454.13
2022-12-19T05:04:58.803Z,101462.53
2022-12-19T05:05:30.347Z,101460.06
2022-12-19T05:06:13.397Z,101451.34
2022-12-19T05:06:45.165Z,101449.53
2022-12-19T05:07:19.359Z,101449.81
2022-12-19T05:07:51.653Z,101463.22
2022-12-19T05:08:23.171Z,101456.31
2022-12-19T05:08:55.604Z,101459.34
2022-12-19T05:09:27.157Z,101462.94
2022-12-19T05:10:01.130Z,101452.03
2022-12-19T05:10:32.679Z,101457.56
2022-12-19T05:11:05.890Z,101449.69
2022-12-19T05:11:38.005Z,101447.75
2022-12-19T05:12:10.230Z,101447.06
2022-12-19T05:12:44.080Z,101455.63
2022-12-19T05:13:16.087Z,101452.28
2022-12-19T05:13:51.670Z,101452.84
2022-12-19T05:14:23.266Z,101458.50
2022-12-19T05:14:54.778Z,101457.41
2022-12-19T05:15:26.422Z,101456.31
2022-12-19T05:16:03.002Z,101458.25
2022-12-19T05:16:37.594Z,101463.75
2022-12-19T05:17:09.116Z,101452.16
2022-12-19T05:17:41.036Z,101455.75
2022-12-19T05:18:12.570Z,101453.53
2022-12-19T05:18:44.123Z,101451.88
2022-12-19T05:19:16.906Z,101451.06
2022-12-19T05:19:49.110Z,101451.31
2022-12-19T05:20:20.904Z,101457.28
2022-12-19T05:20:53.217Z,101450.50
2022-12-19T05:21:28.056Z,101453.53
2022-12-19T05:21:59.642Z,101452.41
2022-12-19T05:22:38.521Z,101456.84
2022-12-19T05:23:16.795Z,101453.53
2022-12-19T05:23:49.800Z,101451.31
2022-12-19T05:24:21.480Z,101452.97
2022-12-19T05:24:53.005Z,101455.19
2022-12-19T05:25:24.572Z,101454.91
2022-12-19T05:26:03.112Z,101458.34
2022-12-19T05:26:34.631Z,101447.03
2022-12-19T05:27:06.504Z,101454.91
2022-12-19T05:27:38.051Z,101452.66
2022-12-19T05:28:09.562Z,101450.84
2022-12-19T05:28:41.572Z,101444.38
2022-12-19T05:29:13.268Z,101450.59
2022-12-19T05:29:44.848Z,101455.97
2022-12-19T05:30:16.398Z,101455.13
2022-12-19T05:30:52.085Z,101455.28
2022-12-19T05:31:25.737Z,101457.19
2022-12-19T05:31:57.330Z,101453.44
2022-12-19T05:32:33.871Z,101449.59
2022-12-19T05:33:05.484Z,101450.97
2022-12-19T05:33:37.357Z,101457.28
2022-12-19T05:34:08.917Z,101445.97
2022-12-19T05:34:40.415Z,101456.50
2022-12-19T05:35:11.950Z,101451.53
2022-12-19T05:35:43.907Z,101449.31
2022-12-19T05:36:16.376Z,101454.28
2022-12-19T05:36:47.945Z,101457.72
2022-12-19T05:37:19.440Z,101459.53
2022-12-19T05:37:51.289Z,101450.97
2022-12-19T05:38:22.806Z,101455.34
2022-12-19T05:38:54.317Z,101451.91
2022-12-19T05:39:25.826Z,101448.75
2022-12-19T05:40:04.734Z,101446.66
2022-12-19T05:40:36.363Z,101446.22
2022-12-19T05:41:15.837Z,101444.16
2022-12-19T05:41:49.153Z,101453.13
2022-12-19T05:42:20.914Z,101443.69
2022-12-19T05:42:52.555Z,101452.00
2022-12-19T05:43:24.320Z,101453.69
2022-12-19T05:43:56.409Z,101451.47
2022-12-19T05:44:28.019Z,101456.41
2022-12-19T05:44:59.534Z,101446.75
2022-12-19T05:45:31.092Z,101447.56
2022-12-19T05:46:04.633Z,101440.97
2022-12-19T05:46:36.488Z,101443.28
2022-12-19T05:47:08.069Z,101438.44
2022-12-19T05:47:39.569Z,101443.28
2022-12-19T05:48:11.276Z,101444.41
2022-12-19T05:48:42.804Z,101439.00
2022-12-19T05:49:17.823Z,101441.78
2022-12-19T05:49:49.486Z,101432.94
2022-12-19T05:50:21.209Z,101447.88
2022-12-19T05:50:55.738Z,101433.63
2022-12-19T05:51:27.334Z,101436.53
2022-12-19T05:51:58.998Z,101442.91
2022-12-19T05:52:31.078Z,101451.69
2022-12-19T05:53:02.672Z,101444.84
2022-12-19T05:53:45.497Z,101444.56
2022-12-19T05:54:18.070Z,101441.94
2022-12-19T05:54:49.591Z,101431.97
2022-12-19T05:55:21.093Z,101439.31
2022-12-19T05:55:52.615Z,101435.69
2022-12-19T05:56:24.153Z,101438.19
2022-12-19T05:56:57.193Z,101432.91
2022-12-19T05:57:29.373Z,101432.22
2022-12-19T05:58:00.998Z,101435.38
2022-12-19T05:58:33.542Z,101437.19
2022-12-19T05:59:05.041Z,101439.13
2022-12-19T05:59:36.617Z,101432.34
2022-12-19T06:00:11.471Z,101435.78
2022-12-19T06:00:45.981Z,101448.94
2022-12-19T06:01:22.989Z,101442.59
2022-12-19T06:01:54.638Z,101427.06
2022-12-19T06:02:27.742Z,101432.75
2022-12-19T06:02:59.452Z,101436.59
2022-12-19T06:03:31.145Z,101429.00
2022-12-19T06:04:04.296Z,101432.31
2022-12-19T06:04:38.512Z,101433.97
2022-12-19T06:05:10.106Z,101435.63
2022-12-19T06:05:41.923Z,101432.03
2022-12-19T06:06:19.591Z,101442.81
2022-12-19T06:06:51.085Z,101438.69
2022-12-19T06:07:22.872Z,101435.91
2022-12-19T06:07:55.230Z,101437.28
2022-12-19T06:08:26.948Z,101432.03
2022-12-19T06:08:59.673Z,101433.00
2022-12-19T06:09:31.288Z,101435.31
2022-12-19T06:10:03.831Z,101424.88
2022-12-19T06:10:35.356Z,101420.00
2022-12-19T06:11:08.301Z,101423.47
2022-12-19T06:11:39.816Z,101424.81
2022-12-19T06:12:11.321Z,101427.75
2022-12-19T06:12:42.849Z,101433.00
2022-12-19T06:13:15.431Z,101432.03
2022-12-19T06:13:46.916Z,101424.81
2022-12-19T06:14:18.537Z,101430.91
2022-12-19T06:14:51.392Z,101426.47
2022-12-19T06:15:23.012Z,101428.81
2022-12-19T06:15:59.299Z,101429.09
2022-12-19T06:16:30.936Z,101418.88
2022-12-19T06:17:02.495Z,101432.50
2022-12-19T06:17:34.450Z,101423.63
2022-12-19T06:18:06.154Z,101418.53
2022-12-19T06:18:42.910Z,101425.06
2022-12-19T06:19:15.956Z,101422.28
2022-12-19T06:19:50.668Z,101414.09
2022-12-19T06:20:22.474Z,101425.06
2022-12-19T06:20:59.131Z,101419.81
2022-12-19T06:21:30.705Z,101427.53
2022-12-19T06:22:02.184Z,101418.69
2022-12-19T06:22:34.422Z,101428.75
2022-12-19T06:23:05.952Z,101422.66
2022-12-19T06:23:37.952Z,101422.97
2022-12-19T06:24:09.525Z,101418.38
2022-12-19T06:24:41.119Z,101420.19
2022-12-19T06:25:15.328Z,101415.47
2022-12-19T06:25:46.826Z,101418.09
2022-12-19T06:26:22.667Z,101420.75
2022-12-19T06:26:54.847Z,101417.28
2022-12-19T06:27:26.359Z,101419.19
2022-12-19T06:27:57.898Z,101418.09
2022-12-19T06:28:30.790Z,101419.75
2022-12-19T06:29:02.548Z,101420.28
2022-12-19T06:29:34.161Z,101423.44
2022-12-19T06:30:06.477Z,101422.78
2022-12-19T06:30:40.128Z,101421.78
2022-12-19T06:31:12.558Z,101418.72
2022-12-19T06:31:46.417Z,101424.41
2022-12-19T06:32:17.961Z,101416.63
2022-12-19T06:32:49.459Z,101421.03
2022-12-19T06:33:21.056Z,101423.53
2022-12-19T06:33:52.885Z,101418.56
2022-12-19T06:34:54.874Z,101420.06
2022-12-19T06:35:15.852Z,101412.72
2022-12-19T06:35:48.337Z,101414.28
2022-12-19T06:36:22.267Z,101412.72
2022-12-19T06:36:56.791Z,101421.69
2022-12-19T06:37:28.332Z,101413.16
2022-12-19T06:38:01.125Z,101411.34
2022-12-19T06:38:34.353Z,101412.41
2022-12-19T06:39:05.987Z,101417.97
2022-12-19T06:39:37.621Z,101421.28
2022-12-19T06:40:29.745Z,101417.81
2022-12-19T06:41:21.307Z,101421.94
2022-12-19T06:42:11.832Z,101420.75
2022-12-19T06:42:43.335Z,101420.44
2022-12-19T06:43:14.873Z,101420.59
2022-12-19T06:43:50.532Z,101420.44
2022-12-19T06:44:24.845Z,101420.22